createdAt,value
2022-12-23T00:00:14.229Z,9.84
2022-12-23T00:01:11.362Z,9.9
2022-12-23T00:02:11.858Z,9.84
2022-12-23T00:03:11.489Z,9.87
2022-12-23T00:04:11.149Z,9.76
2022-12-23T00:05:10.810Z,9.8
2022-12-23T00:06:13.878Z,9.81
2022-12-23T00:07:10.889Z,9.91
2022-12-23T00:08:10.925Z,9.91
2022-12-23T00:09:10.837Z,9.88
2022-12-23T00:10:10.972Z,9.84
2022-12-23T00:11:13.947Z,9.88
2022-12-23T00:12:10.868Z,9.92
2022-12-23T00:13:10.836Z,9.85
2022-12-23T00:14:14.756Z,9.82
2022-12-23T00:15:10.846Z,9.91
2022-12-23T00:16:11.035Z,9.85
2022-12-23T00:17:26.527Z,9.85
2022-12-23T00:18:10.851Z,9.85
2022-12-23T00:19:10.857Z,9.85
2022-12-23T00:20:10.979Z,9.9
2022-12-23T00:21:13.461Z,9.84
2022-12-23T00:22:12.446Z,9.84
2022-12-23T00:23:10.864Z,9.87
2022-12-23T00:24:10.847Z,9.9
2022-12-23T00:25:10.863Z,9.92
2022-12-23T00:26:10.890Z,9.82
2022-12-23T00:27:10.945Z,9.9
2022-12-23T00:28:10.867Z,9.84
2022-12-23T00:29:10.855Z,9.84
2022-12-23T00:30:10.855Z,9.88
2022-12-23T00:31:10.867Z,9.8
2022-12-23T00:32:11.199Z,9.84
2022-12-23T00:33:13.716Z,9.72
2022-12-23T00:34:11.154Z,9.76
2022-12-23T00:35:11.175Z,9.77
2022-12-23T00:36:11.526Z,9.73
2022-12-23T00:37:11.178Z,9.56
2022-12-23T00:38:11.156Z,9.59
2022-12-23T00:39:14.274Z,9.64
2022-12-23T00:40:11.731Z,9.7
2022-12-23T00:41:11.168Z,9.73
2022-12-23T00:42:11.296Z,9.84
2022-12-23T00:43:11.230Z,9.74
2022-12-23T00:44:14.357Z,9.69
2022-12-23T00:45:11.210Z,9.69
2022-12-23T00:46:11.452Z,9.73
2022-12-23T00:47:11.257Z,9.8
2022-12-23T00:48:11.228Z,9.67
2022-12-23T00:49:14.195Z,9.67
2022-12-23T00:50:14.239Z,9.72
2022-12-23T00:51:11.206Z,9.69
2022-12-23T00:52:11.364Z,9.72
2022-12-23T00:53:11.166Z,9.7
2022-12-23T00:54:11.188Z,9.69
2022-12-23T00:55:14.046Z,9.67
2022-12-23T00:56:11.189Z,9.67
2022-12-23T00:57:11.225Z,9.66
2022-12-23T00:58:11.329Z,9.7
2022-12-23T00:59:11.191Z,9.56
2022-12-23T01:00:11.250Z,9.67
2022-12-23T01:01:14.239Z,9.55
2022-12-23T01:02:11.951Z,9.52
2022-12-23T01:03:11.790Z,9.52
2022-12-23T01:04:11.232Z,9.52
2022-12-23T01:05:11.239Z,9.66
2022-12-23T01:06:14.989Z,9.59
2022-12-23T01:07:11.323Z,9.54
2022-12-23T01:08:11.325Z,9.54
2022-12-23T01:09:11.190Z,9.48
2022-12-23T01:10:11.246Z,9.44
2022-12-23T01:11:11.199Z,9.48
2022-12-23T01:12:11.298Z,9.44
2022-12-23T01:13:11.238Z,9.48
2022-12-23T01:14:11.242Z,9.48
2022-12-23T01:15:11.259Z,9.4
2022-12-23T01:16:20.217Z,9.48
2022-12-23T01:17:14.686Z,9.48
2022-12-23T01:18:11.229Z,9.49
2022-12-23T01:19:11.691Z,9.48
2022-12-23T01:20:11.259Z,9.52
2022-12-23T01:21:11.241Z,9.56
2022-12-23T01:22:11.255Z,9.54
2022-12-23T01:23:11.241Z,9.56
2022-12-23T01:24:11.273Z,9.62
2022-12-23T01:25:11.219Z,9.56
2022-12-23T01:26:11.224Z,9.62
2022-12-23T01:27:11.248Z,9.62
2022-12-23T01:28:11.255Z,9.59
2022-12-23T01:29:11.250Z,9.66
2022-12-23T01:30:11.274Z,9.62
2022-12-23T01:31:11.275Z,9.69
2022-12-23T01:32:11.695Z,9.59
2022-12-23T01:33:11.220Z,9.67
2022-12-23T01:34:11.251Z,9.66
2022-12-23T01:35:11.267Z,9.67
2022-12-23T01:36:11.249Z,9.66
2022-12-23T01:37:11.254Z,9.67
2022-12-23T01:38:11.295Z,9.74
2022-12-23T01:39:11.279Z,9.52
2022-12-23T01:40:11.491Z,9.67
2022-12-23T01:41:11.268Z,9.7
2022-12-23T01:42:11.265Z,9.73
2022-12-23T01:43:11.288Z,9.58
2022-12-23T01:44:11.276Z,9.59
2022-12-23T01:45:11.279Z,9.66
2022-12-23T01:46:11.499Z,9.62
2022-12-23T01:47:11.276Z,9.63
2022-12-23T01:48:11.287Z,9.64
2022-12-23T01:49:14.345Z,9.64
2022-12-23T01:50:11.290Z,9.58
2022-12-23T01:51:11.295Z,9.55
2022-12-23T01:52:11.264Z,9.62
2022-12-23T01:53:12.866Z,9.62
2022-12-23T01:54:11.265Z,9.58
2022-12-23T01:55:11.290Z,9.51
2022-12-23T01:56:11.407Z,9.54
2022-12-23T01:57:11.274Z,9.62
2022-12-23T01:58:11.388Z,9.58
2022-12-23T01:59:11.316Z,9.56
2022-12-23T02:00:14.134Z,9.58
2022-12-23T02:01:11.438Z,9.48
2022-12-23T02:02:12.023Z,9.39
2022-12-23T02:03:11.796Z,9.37
2022-12-23T02:04:11.357Z,9.24
2022-12-23T02:05:11.300Z,9.31
2022-12-23T02:06:11.304Z,9.31
2022-12-23T02:07:11.323Z,9.31
2022-12-23T02:08:11.345Z,9.3
2022-12-23T02:09:11.296Z,9.36
2022-12-23T02:10:11.316Z,9.22
2022-12-23T02:11:14.443Z,9.37
2022-12-23T02:12:11.405Z,9.27
2022-12-23T02:13:11.336Z,9.21
2022-12-23T02:14:11.312Z,9.22
2022-12-23T02:15:11.323Z,9.29
2022-12-23T02:16:11.310Z,9.29
2022-12-23T02:17:11.547Z,9.29
2022-12-23T02:18:11.398Z,9.31
2022-12-23T02:19:11.362Z,9.24
2022-12-23T02:20:11.304Z,9.33
2022-12-23T02:21:11.360Z,9.3
2022-12-23T02:22:14.851Z,9.33
2022-12-23T02:23:11.328Z,9.31
2022-12-23T02:24:11.320Z,9.44
2022-12-23T02:25:11.330Z,9.39
2022-12-23T02:26:11.347Z,9.44
2022-12-23T02:27:11.370Z,9.47
2022-12-23T02:28:11.368Z,9.44
2022-12-23T02:29:11.327Z,9.47
2022-12-23T02:30:11.323Z,9.55
2022-12-23T02:31:11.699Z,9.49
2022-12-23T02:32:11.343Z,9.62
2022-12-23T02:33:20.257Z,9.63
2022-12-23T02:34:11.376Z,9.49
2022-12-23T02:35:11.336Z,9.56
2022-12-23T02:36:11.352Z,9.59
2022-12-23T02:37:11.356Z,9.48
2022-12-23T02:38:11.414Z,9.58
2022-12-23T02:39:11.381Z,9.66
2022-12-23T02:40:11.330Z,9.55
2022-12-23T02:41:11.358Z,9.56
2022-12-23T02:42:11.350Z,9.62
2022-12-23T02:43:11.521Z,9.56
2022-12-23T02:44:14.196Z,9.63
2022-12-23T02:45:11.369Z,9.58
2022-12-23T02:46:11.642Z,9.56
2022-12-23T02:47:11.413Z,9.52
2022-12-23T02:48:11.387Z,9.52
2022-12-23T02:49:14.445Z,9.52
2022-12-23T02:50:11.356Z,9.51
2022-12-23T02:51:11.360Z,9.49
2022-12-23T02:52:11.385Z,9.62
2022-12-23T02:53:11.373Z,9.58
2022-12-23T02:54:11.358Z,9.54
2022-12-23T02:55:14.437Z,9.63
2022-12-23T02:56:11.368Z,9.67
2022-12-23T02:57:11.385Z,9.59
2022-12-23T02:58:11.424Z,9.59
2022-12-23T02:59:11.592Z,9.59
2022-12-23T03:00:14.235Z,9.55
2022-12-23T03:01:11.480Z,9.55
2022-12-23T03:02:12.092Z,9.58
2022-12-23T03:03:11.959Z,9.59
2022-12-23T03:04:11.768Z,9.63
2022-12-23T03:05:11.519Z,9.56
2022-12-23T03:06:14.398Z,9.59
2022-12-23T03:07:20.462Z,9.66
2022-12-23T03:08:11.432Z,9.54
2022-12-23T03:09:11.393Z,9.69
2022-12-23T03:10:11.421Z,9.55
2022-12-23T03:11:14.485Z,9.59
2022-12-23T03:12:11.418Z,9.64
2022-12-23T03:13:11.563Z,9.55
2022-12-23T03:14:11.395Z,9.63
2022-12-23T03:15:11.435Z,9.64
2022-12-23T03:16:11.644Z,9.59
2022-12-23T03:17:11.562Z,9.58
2022-12-23T03:18:11.442Z,9.66
2022-12-23T03:19:11.397Z,9.63
2022-12-23T03:20:11.419Z,9.67
2022-12-23T03:21:11.454Z,9.72
2022-12-23T03:22:14.537Z,9.63
2022-12-23T03:23:11.475Z,9.73
2022-12-23T03:24:11.410Z,9.69
2022-12-23T03:25:11.454Z,9.58
2022-12-23T03:26:11.407Z,9.7
2022-12-23T03:27:11.431Z,9.72
2022-12-23T03:28:11.473Z,9.67
2022-12-23T03:29:11.411Z,9.56
2022-12-23T03:30:11.441Z,9.59
2022-12-23T03:31:11.952Z,9.7
2022-12-23T03:32:11.415Z,9.73
2022-12-23T03:33:14.479Z,9.7
2022-12-23T03:34:11.438Z,9.69
2022-12-23T03:35:11.432Z,9.67
2022-12-23T03:36:11.472Z,9.62
2022-12-23T03:37:11.453Z,9.67
2022-12-23T03:38:11.456Z,9.66
2022-12-23T03:39:11.437Z,9.7
2022-12-23T03:40:11.473Z,9.7
2022-12-23T03:41:11.448Z,9.64
2022-12-23T03:42:11.453Z,9.73
2022-12-23T03:43:11.468Z,9.67
2022-12-23T03:44:14.373Z,9.64
2022-12-23T03:45:43.622Z,9.67
2022-12-23T03:46:11.660Z,9.7
2022-12-23T03:47:11.574Z,9.63
2022-12-23T03:48:11.477Z,9.7
2022-12-23T03:49:11.470Z,9.7
2022-12-23T03:50:11.459Z,9.69
2022-12-23T03:51:11.515Z,9.64
2022-12-23T03:52:14.616Z,9.67
2022-12-23T03:53:11.515Z,9.7
2022-12-23T03:54:11.488Z,9.7
2022-12-23T03:55:11.475Z,9.64
2022-12-23T03:56:11.473Z,9.69
2022-12-23T03:57:11.475Z,9.74
2022-12-23T03:58:11.495Z,9.64
2022-12-23T03:59:11.501Z,9.7
2022-12-23T04:00:11.583Z,9.7
2022-12-23T04:01:11.575Z,9.72
2022-12-23T04:02:12.106Z,9.74
2022-12-23T04:03:11.572Z,9.67
2022-12-23T04:04:12.012Z,9.73
2022-12-23T04:05:11.534Z,9.7
2022-12-23T04:06:11.461Z,9.69
2022-12-23T04:07:11.465Z,9.67
2022-12-23T04:08:11.551Z,9.67
2022-12-23T04:09:13.466Z,9.69
2022-12-23T04:10:11.478Z,9.7
2022-12-23T04:11:11.477Z,9.76
2022-12-23T04:12:11.512Z,9.73
2022-12-23T04:13:11.561Z,9.73
2022-12-23T04:14:11.507Z,9.76
2022-12-23T04:15:17.352Z,9.69
2022-12-23T04:16:14.588Z,9.72
2022-12-23T04:17:11.474Z,9.7
2022-12-23T04:18:11.575Z,9.73
2022-12-23T04:19:11.578Z,9.77
2022-12-23T04:20:11.490Z,9.69
2022-12-23T04:21:11.504Z,9.77
2022-12-23T04:22:11.540Z,9.74
2022-12-23T04:23:11.535Z,9.67
2022-12-23T04:24:11.542Z,9.76
2022-12-23T04:25:11.542Z,9.7
2022-12-23T04:26:11.526Z,9.74
2022-12-23T04:27:14.302Z,9.67
2022-12-23T04:28:11.554Z,9.73
2022-12-23T04:29:11.383Z,9.66
2022-12-23T04:30:11.545Z,9.67
2022-12-23T04:31:11.714Z,9.66
2022-12-23T04:32:11.527Z,9.66
2022-12-23T04:33:11.587Z,9.54
2022-12-23T04:34:11.535Z,9.64
2022-12-23T04:35:11.591Z,9.59
2022-12-23T04:36:11.565Z,9.59
2022-12-23T04:37:11.534Z,9.63
2022-12-23T04:38:14.370Z,9.72
2022-12-23T04:39:11.553Z,9.63
2022-12-23T04:40:11.558Z,9.7
2022-12-23T04:41:11.559Z,9.67
2022-12-23T04:42:11.632Z,9.77
2022-12-23T04:43:11.588Z,9.66
2022-12-23T04:44:11.552Z,9.64
2022-12-23T04:45:11.513Z,9.56
2022-12-23T04:46:11.738Z,9.52
2022-12-23T04:47:11.781Z,9.37
2022-12-23T04:48:11.608Z,9.55
2022-12-23T04:49:14.613Z,9.42
2022-12-23T04:50:11.570Z,9.47
2022-12-23T04:51:11.595Z,9.48
2022-12-23T04:52:11.548Z,9.49
2022-12-23T04:53:11.607Z,9.54
2022-12-23T04:54:11.625Z,9.47
2022-12-23T04:55:11.557Z,9.56
2022-12-23T04:56:11.558Z,9.58
2022-12-23T04:57:11.591Z,9.49
2022-12-23T04:58:11.581Z,9.54
2022-12-23T04:59:11.577Z,9.66
2022-12-23T05:00:14.746Z,9.55
2022-12-23T05:01:11.979Z,9.48
2022-12-23T05:02:12.296Z,9.63
2022-12-23T05:03:12.265Z,9.49
2022-12-23T05:04:11.599Z,9.63
2022-12-23T05:05:11.601Z,9.56
2022-12-23T05:06:11.624Z,9.54
2022-12-23T05:07:11.657Z,9.54
2022-12-23T05:08:11.603Z,9.54
2022-12-23T05:09:11.613Z,9.55
2022-12-23T05:10:11.635Z,9.58
2022-12-23T05:11:14.588Z,9.52
2022-12-23T05:12:11.587Z,9.52
2022-12-23T05:13:11.674Z,9.58
2022-12-23T05:14:11.603Z,9.56
2022-12-23T05:15:11.591Z,9.55
2022-12-23T05:16:15.885Z,9.56
2022-12-23T05:17:12.683Z,9.7
2022-12-23T05:18:11.627Z,9.58
2022-12-23T05:19:11.768Z,9.56
2022-12-23T05:20:11.615Z,9.58
2022-12-23T05:21:11.807Z,9.67
2022-12-23T05:22:14.721Z,9.59
2022-12-23T05:23:11.662Z,9.7
2022-12-23T05:24:11.645Z,9.72
2022-12-23T05:25:11.618Z,9.64
2022-12-23T05:26:11.609Z,9.69
2022-12-23T05:27:14.426Z,9.64
2022-12-23T05:28:11.667Z,9.59
2022-12-23T05:29:11.651Z,9.58
2022-12-23T05:30:11.640Z,9.58
2022-12-23T05:31:11.830Z,9.63
2022-12-23T05:32:11.958Z,9.59
2022-12-23T05:33:14.675Z,9.66
2022-12-23T05:34:11.983Z,9.54
2022-12-23T05:35:11.658Z,9.66
2022-12-23T05:36:11.663Z,9.62
2022-12-23T05:37:11.690Z,9.59
2022-12-23T05:38:12.901Z,9.64
2022-12-23T05:39:11.641Z,9.48
2022-12-23T05:40:12.018Z,9.56
2022-12-23T05:41:11.678Z,9.55
2022-12-23T05:42:11.645Z,9.63
2022-12-23T05:43:11.639Z,9.45
2022-12-23T05:44:14.828Z,9.47
2022-12-23T05:45:11.655Z,9.59
2022-12-23T05:46:11.565Z,9.56
2022-12-23T05:47:11.653Z,9.52
2022-12-23T05:48:11.652Z,9.59
2022-12-23T05:49:14.424Z,9.56
2022-12-23T05:50:11.679Z,9.48
2022-12-23T05:51:11.487Z,9.54
2022-12-23T05:52:11.492Z,9.55
2022-12-23T05:53:11.673Z,9.63
2022-12-23T05:54:11.695Z,9.62
2022-12-23T05:55:11.677Z,9.49
2022-12-23T05:56:11.661Z,9.59
2022-12-23T05:57:11.697Z,9.56
2022-12-23T05:58:11.680Z,9.59
2022-12-23T05:59:11.664Z,9.54
2022-12-23T06:00:14.522Z,9.54
2022-12-23T06:01:11.674Z,9.52
2022-12-23T06:02:12.408Z,9.56
2022-12-23T06:03:12.350Z,9.64
2022-12-23T06:04:12.058Z,9.54
2022-12-23T06:05:11.664Z,9.66
2022-12-23T06:06:11.692Z,9.69
2022-12-23T06:07:11.663Z,9.69
2022-12-23T06:08:11.707Z,9.66
2022-12-23T06:09:11.675Z,9.67
2022-12-23T06:10:11.712Z,9.72
2022-12-23T06:11:14.770Z,9.77
2022-12-23T06:12:11.707Z,9.8
2022-12-23T06:13:11.683Z,9.82
2022-12-23T06:14:11.678Z,9.8
2022-12-23T06:15:11.773Z,9.88
2022-12-23T06:16:11.894Z,9.85
2022-12-23T06:17:11.821Z,9.87
2022-12-23T06:18:11.719Z,9.88
2022-12-23T06:19:11.668Z,9.99
2022-12-23T06:20:20.837Z,10.07
2022-12-23T06:21:11.696Z,10.07
2022-12-23T06:22:11.710Z,10.05
2022-12-23T06:23:11.712Z,10.12
2022-12-23T06:24:11.766Z,10.13
2022-12-23T06:25:11.699Z,10.27
2022-12-23T06:26:11.729Z,10.24
2022-12-23T06:27:11.748Z,10.23
2022-12-23T06:28:11.754Z,10.28
2022-12-23T06:29:11.717Z,10.3
2022-12-23T06:30:11.726Z,10.34
2022-12-23T06:31:11.702Z,10.34
2022-12-23T06:32:11.902Z,10.34
2022-12-23T06:33:11.738Z,10.36
2022-12-23T06:34:11.719Z,10.36
2022-12-23T06:35:11.838Z,10.42
2022-12-23T06:36:11.700Z,10.43
2022-12-23T06:37:11.835Z,10.36
2022-12-23T06:38:19.616Z,10.43
2022-12-23T06:39:11.716Z,10.36
2022-12-23T06:40:11.739Z,10.42
2022-12-23T06:41:11.742Z,10.39
2022-12-23T06:42:11.787Z,10.43
2022-12-23T06:43:16.929Z,10.45
2022-12-23T06:44:11.731Z,10.39
2022-12-23T06:45:11.735Z,10.45
2022-12-23T06:46:11.898Z,10.53
2022-12-23T06:47:11.732Z,10.42
2022-12-23T06:48:11.881Z,10.53
2022-12-23T06:49:21.214Z,10.53
2022-12-23T06:50:11.758Z,10.48
2022-12-23T06:51:11.735Z,10.58
2022-12-23T06:52:11.775Z,10.65
2022-12-23T06:53:11.745Z,10.59
2022-12-23T06:54:14.564Z,10.49
2022-12-23T06:55:11.785Z,10.49
2022-12-23T06:56:11.784Z,10.57
2022-12-23T06:57:11.739Z,10.55
2022-12-23T06:58:11.776Z,10.59
2022-12-23T06:59:11.817Z,10.48
2022-12-23T07:00:11.782Z,10.68
2022-12-23T07:01:12.803Z,10.64
2022-12-23T07:02:12.396Z,10.57
2022-12-23T07:03:12.193Z,10.57
2022-12-23T07:04:11.807Z,10.59
2022-12-23T07:05:14.563Z,10.51
2022-12-23T07:06:11.771Z,10.58
2022-12-23T07:07:11.762Z,10.58
2022-12-23T07:08:11.782Z,10.68
2022-12-23T07:09:11.783Z,10.61
2022-12-23T07:10:11.815Z,10.61
2022-12-23T07:11:11.779Z,10.62
2022-12-23T07:12:11.770Z,10.65
2022-12-23T07:13:11.786Z,10.65
2022-12-23T07:14:11.846Z,10.59
2022-12-23T07:15:11.889Z,10.62
2022-12-23T07:16:14.970Z,10.69
2022-12-23T07:17:12.085Z,10.59
2022-12-23T07:18:11.799Z,10.62
2022-12-23T07:19:11.881Z,10.64
2022-12-23T07:20:11.829Z,10.64
2022-12-23T07:21:31.330Z,10.75
2022-12-23T07:22:11.799Z,10.67
2022-12-23T07:23:11.786Z,10.67
2022-12-23T07:24:11.850Z,10.61
2022-12-23T07:25:11.794Z,10.61
2022-12-23T07:26:11.833Z,10.65
2022-12-23T07:27:14.745Z,10.71
2022-12-23T07:28:11.831Z,10.69
2022-12-23T07:29:11.843Z,10.62
2022-12-23T07:30:11.847Z,10.64
2022-12-23T07:31:12.220Z,10.68
2022-12-23T07:32:12.037Z,10.67
2022-12-23T07:33:11.809Z,10.58
2022-12-23T07:34:11.823Z,10.59
2022-12-23T07:35:11.804Z,10.62
2022-12-23T07:36:11.866Z,10.62
2022-12-23T07:37:11.851Z,10.59
2022-12-23T07:38:14.653Z,10.51
2022-12-23T07:39:11.855Z,10.62
2022-12-23T07:40:13.680Z,10.62
2022-12-23T07:41:11.856Z,10.58
2022-12-23T07:42:49.602Z,10.62
2022-12-23T07:43:11.822Z,10.58
2022-12-23T07:44:11.856Z,10.64
2022-12-23T07:45:11.836Z,10.61
2022-12-23T07:46:12.169Z,10.62
2022-12-23T07:47:11.866Z,10.62
2022-12-23T07:48:11.868Z,10.61
2022-12-23T07:49:14.610Z,10.59
2022-12-23T07:50:11.873Z,10.59
2022-12-23T07:51:11.839Z,10.69
2022-12-23T07:52:11.855Z,10.68
2022-12-23T07:53:11.831Z,10.59
2022-12-23T07:54:12.924Z,10.65
2022-12-23T07:55:11.864Z,10.65
2022-12-23T07:56:11.863Z,10.68
2022-12-23T07:57:11.843Z,10.72
2022-12-23T07:58:11.849Z,10.61
2022-12-23T07:59:11.855Z,10.75
2022-12-23T08:00:14.627Z,10.8
2022-12-23T08:01:12.099Z,10.75
2022-12-23T08:02:12.514Z,10.67
2022-12-23T08:03:12.297Z,10.76
2022-12-23T08:04:11.895Z,10.75
2022-12-23T08:05:14.997Z,10.72
2022-12-23T08:06:11.880Z,10.58
2022-12-23T08:07:11.837Z,10.77
2022-12-23T08:08:11.779Z,10.72
2022-12-23T08:09:11.914Z,10.76
2022-12-23T08:10:11.922Z,10.67
2022-12-23T08:11:14.907Z,10.65
2022-12-23T08:12:11.885Z,10.72
2022-12-23T08:13:11.856Z,10.76
2022-12-23T08:14:11.898Z,10.67
2022-12-23T08:15:11.858Z,10.79
2022-12-23T08:16:15.274Z,10.67
2022-12-23T08:17:12.117Z,10.72
2022-12-23T08:18:11.886Z,10.68
2022-12-23T08:19:11.904Z,10.77
2022-12-23T08:20:11.879Z,10.77
2022-12-23T08:21:11.907Z,10.8
2022-12-23T08:22:14.951Z,10.83
2022-12-23T08:23:11.897Z,10.83
2022-12-23T08:24:12.035Z,10.79
2022-12-23T08:25:11.882Z,10.84
2022-12-23T08:26:11.879Z,10.84
2022-12-23T08:27:14.720Z,10.83
2022-12-23T08:28:11.865Z,10.83
2022-12-23T08:29:11.941Z,10.89
2022-12-23T08:30:11.906Z,10.86
2022-12-23T08:31:12.256Z,10.86
2022-12-23T08:32:11.933Z,10.87
2022-12-23T08:33:11.916Z,10.94
2022-12-23T08:34:11.939Z,10.92
2022-12-23T08:35:11.955Z,10.97
2022-12-23T08:36:12.344Z,10.95
2022-12-23T08:37:11.909Z,10.87
2022-12-23T08:38:14.975Z,10.98
2022-12-23T08:39:11.959Z,10.9
2022-12-23T08:40:11.983Z,11.04
2022-12-23T08:41:11.928Z,11.1
2022-12-23T08:42:11.959Z,11.07
2022-12-23T08:43:11.929Z,11.02
2022-12-23T08:44:11.998Z,11.15
2022-12-23T08:45:11.925Z,11.05
2022-12-23T08:46:12.156Z,11.16
2022-12-23T08:47:11.928Z,11.05
2022-12-23T08:48:11.915Z,11.08
2022-12-23T08:49:11.953Z,11.05
2022-12-23T08:50:11.948Z,11.15
2022-12-23T08:51:11.935Z,11.12
2022-12-23T08:52:11.954Z,11.1
2022-12-23T08:53:11.945Z,11.15
2022-12-23T08:54:11.966Z,11.12
2022-12-23T08:55:11.953Z,11.15
2022-12-23T08:56:11.959Z,11.22
2022-12-23T08:57:11.943Z,11.13
2022-12-23T08:58:11.928Z,11.19
2022-12-23T08:59:19.890Z,11.23
2022-12-23T09:00:11.948Z,11.22
2022-12-23T09:01:12.117Z,11.3
2022-12-23T09:02:12.668Z,11.25
2022-12-23T09:03:12.473Z,11.25
2022-12-23T09:04:11.977Z,11.34
2022-12-23T09:05:12.011Z,11.22
2022-12-23T09:06:11.982Z,11.27
2022-12-23T09:07:11.985Z,11.26
2022-12-23T09:08:11.962Z,11.26
2022-12-23T09:09:11.989Z,11.22
2022-12-23T09:10:14.756Z,11.27
2022-12-23T09:11:11.949Z,11.23
2022-12-23T09:12:12.091Z,11.2
2022-12-23T09:13:14.993Z,11.26
2022-12-23T09:14:12.000Z,11.27
2022-12-23T09:15:11.979Z,11.25
2022-12-23T09:16:12.027Z,11.31
2022-12-23T09:17:11.806Z,11.3
2022-12-23T09:18:11.966Z,11.27
2022-12-23T09:19:12.000Z,11.38
2022-12-23T09:20:11.978Z,11.44
2022-12-23T09:21:15.045Z,11.34
2022-12-23T09:22:11.976Z,11.48
2022-12-23T09:23:12.001Z,11.41
2022-12-23T09:24:12.034Z,11.49
2022-12-23T09:25:12.097Z,11.48
2022-12-23T09:26:11.978Z,11.62
2022-12-23T09:27:11.984Z,11.62
2022-12-23T09:28:12.034Z,11.53
2022-12-23T09:29:12.070Z,11.62
2022-12-23T09:30:12.009Z,11.56
2022-12-23T09:31:12.350Z,11.63
2022-12-23T09:32:15.080Z,11.68
2022-12-23T09:33:11.998Z,11.67
2022-12-23T09:34:12.088Z,11.7
2022-12-23T09:35:12.007Z,11.65
2022-12-23T09:36:12.005Z,11.71
2022-12-23T09:37:11.893Z,11.71
2022-12-23T09:38:12.009Z,11.63
2022-12-23T09:39:12.064Z,11.7
2022-12-23T09:40:12.020Z,11.71
2022-12-23T09:41:12.002Z,11.6
2022-12-23T09:42:11.999Z,11.63
2022-12-23T09:43:14.849Z,11.58
2022-12-23T09:44:12.100Z,11.67
2022-12-23T09:45:12.032Z,11.65
2022-12-23T09:46:12.189Z,11.71
2022-12-23T09:47:12.022Z,11.76
2022-12-23T09:48:12.035Z,11.67
2022-12-23T09:49:12.031Z,11.65
2022-12-23T09:50:12.048Z,11.67
2022-12-23T09:51:12.029Z,11.67
2022-12-23T09:52:12.030Z,11.67
2022-12-23T09:53:12.102Z,11.7
2022-12-23T09:54:19.637Z,11.68
2022-12-23T09:55:12.024Z,11.76
2022-12-23T09:56:12.055Z,11.65
2022-12-23T09:57:12.084Z,11.67
2022-12-23T09:58:12.046Z,11.59
2022-12-23T09:59:12.044Z,11.63
2022-12-23T10:00:12.202Z,11.59
2022-12-23T10:01:12.037Z,11.7
2022-12-23T10:02:12.471Z,11.7
2022-12-23T10:03:12.856Z,11.67
2022-12-23T10:04:12.314Z,11.63
2022-12-23T10:05:15.277Z,11.71
2022-12-23T10:06:12.046Z,11.6
2022-12-23T10:07:12.073Z,11.6
2022-12-23T10:08:12.094Z,11.63
2022-12-23T10:09:12.076Z,11.7
2022-12-23T10:10:12.089Z,11.62
2022-12-23T10:11:12.067Z,11.56
2022-12-23T10:12:12.069Z,11.56
2022-12-23T10:13:12.059Z,11.55
2022-12-23T10:14:12.080Z,11.56
2022-12-23T10:15:12.074Z,11.55
2022-12-23T10:16:15.329Z,11.59
2022-12-23T10:17:12.057Z,11.63
2022-12-23T10:18:12.096Z,11.52
2022-12-23T10:19:12.061Z,11.56
2022-12-23T10:20:12.069Z,11.65
2022-12-23T10:21:14.928Z,11.63
2022-12-23T10:22:12.071Z,11.56
2022-12-23T10:23:12.070Z,11.62
2022-12-23T10:24:12.112Z,11.62
2022-12-23T10:25:12.101Z,11.56
2022-12-23T10:26:12.190Z,11.73
2022-12-23T10:27:15.155Z,11.67
2022-12-23T10:28:12.084Z,11.62
2022-12-23T10:29:18.936Z,11.7
2022-12-23T10:31:38.343Z,11.76
2022-12-23T10:31:49.440Z,11.7
2022-12-23T10:32:50.244Z,11.73
2022-12-23T10:33:49.184Z,11.73
2022-12-23T10:34:49.218Z,11.83
2022-12-23T10:35:52.016Z,11.76
2022-12-23T10:36:50.443Z,11.81
2022-12-23T10:37:50.233Z,11.76
2022-12-23T10:38:49.137Z,11.85
2022-12-23T10:39:49.210Z,11.86
2022-12-23T10:40:51.961Z,11.96
2022-12-23T10:41:49.198Z,11.83
2022-12-23T10:42:50.265Z,11.83
2022-12-23T10:43:49.202Z,11.86
2022-12-23T10:44:49.196Z,11.86
2022-12-23T10:45:49.170Z,11.86
2022-12-23T10:46:53.443Z,11.95
2022-12-23T10:47:49.258Z,11.91
2022-12-23T10:48:49.183Z,11.96
2022-12-23T10:49:49.241Z,11.99
2022-12-23T10:50:50.257Z,11.88
2022-12-23T10:51:52.511Z,11.86
2022-12-23T10:52:50.298Z,11.89
2022-12-23T10:53:50.267Z,11.86
2022-12-23T10:54:49.198Z,12
2022-12-23T10:55:49.190Z,11.97
2022-12-23T10:56:50.245Z,11.95
2022-12-23T10:57:49.251Z,11.93
2022-12-23T10:58:49.167Z,11.95
2022-12-23T10:59:49.232Z,11.97
2022-12-23T11:00:50.475Z,11.99
2022-12-23T11:01:50.557Z,11.95
2022-12-23T11:02:54.987Z,11.96
2022-12-23T11:03:50.473Z,12
2022-12-23T11:04:49.272Z,11.88
2022-12-23T11:05:50.372Z,11.89
2022-12-23T11:06:52.878Z,11.95
2022-12-23T11:07:51.620Z,12.02
2022-12-23T11:08:54.001Z,11.97
2022-12-23T11:09:51.230Z,12.03
2022-12-23T11:10:51.138Z,12.02
2022-12-23T11:11:50.970Z,11.96
2022-12-23T11:12:50.903Z,12.02
2022-12-23T11:13:54.525Z,11.99
2022-12-23T11:14:51.142Z,11.95
2022-12-23T11:15:51.226Z,12.05
2022-12-23T11:16:51.407Z,11.99
2022-12-23T11:17:51.128Z,12.07
2022-12-23T11:18:51.122Z,11.97
2022-12-23T11:19:59.957Z,12.07
2022-12-23T11:20:51.133Z,12
2022-12-23T11:21:51.162Z,12.02
2022-12-23T11:22:53.772Z,11.99
2022-12-23T11:23:51.380Z,12.02
2022-12-23T11:24:55.215Z,12.02
2022-12-23T11:25:51.422Z,11.99
2022-12-23T11:26:51.485Z,11.97
2022-12-23T11:27:51.493Z,12.03
2022-12-23T11:28:51.433Z,11.97
2022-12-23T11:29:51.388Z,11.93
2022-12-23T11:30:59.500Z,12
2022-12-23T11:31:51.290Z,12.07
2022-12-23T11:32:51.173Z,12.03
2022-12-23T11:33:51.174Z,12
2022-12-23T11:34:51.181Z,12.05
2022-12-23T11:35:54.630Z,12.12
2022-12-23T11:37:07.117Z,12.14
2022-12-23T11:37:51.155Z,12.11
2022-12-23T11:38:51.166Z,12.11
2022-12-23T11:39:51.203Z,12.18
2022-12-23T11:40:51.165Z,12.11
2022-12-23T11:41:51.192Z,12.15
2022-12-23T11:42:57.762Z,12.12
2022-12-23T11:43:51.170Z,12.14
2022-12-23T11:44:51.252Z,12.08
2022-12-23T11:45:51.485Z,12.14
2022-12-23T11:46:55.005Z,12.17
2022-12-23T11:47:51.197Z,12.15
2022-12-23T11:48:59.160Z,12.15
2022-12-23T11:49:51.221Z,12.21
2022-12-23T11:50:51.182Z,12.17
2022-12-23T11:51:51.222Z,12.23
2022-12-23T11:52:51.190Z,12.2
2022-12-23T11:53:51.177Z,12.2
2022-12-23T11:54:57.313Z,12.3
2022-12-23T11:55:51.208Z,12.21
2022-12-23T11:56:51.452Z,12.25
2022-12-23T11:57:54.716Z,12.23
2022-12-23T11:58:51.225Z,12.23
2022-12-23T11:59:51.225Z,12.26
2022-12-23T12:00:58.799Z,12.3
2022-12-23T12:01:51.546Z,12.26
2022-12-23T12:02:51.760Z,12.2
2022-12-23T12:03:51.464Z,12.29
2022-12-23T12:04:51.229Z,12.28
2022-12-23T12:05:51.232Z,12.21
2022-12-23T12:06:59.302Z,12.36
2022-12-23T12:07:51.248Z,12.33
2022-12-23T12:08:51.232Z,12.26
2022-12-23T12:09:51.253Z,12.36
2022-12-23T12:10:51.219Z,12.17
2022-12-23T12:11:51.227Z,12.3
2022-12-23T12:12:57.526Z,12.36
2022-12-23T12:13:51.269Z,12.32
2022-12-23T12:14:51.301Z,12.21
2022-12-23T12:15:51.263Z,12.23
2022-12-23T12:16:51.466Z,12.26
2022-12-23T12:17:51.225Z,12.32
2022-12-23T12:18:58.496Z,12.35
2022-12-23T12:19:51.280Z,12.36
2022-12-23T12:20:51.247Z,12.29
2022-12-23T12:21:51.260Z,12.28
2022-12-23T12:22:51.255Z,12.3
2022-12-23T12:24:03.175Z,12.37
2022-12-23T12:24:51.282Z,12.36
2022-12-23T12:25:51.252Z,12.35
2022-12-23T12:26:51.550Z,12.37
2022-12-23T12:27:51.261Z,12.37
2022-12-23T12:28:51.293Z,12.32
2022-12-23T12:29:54.461Z,12.35
2022-12-23T12:30:51.519Z,12.29
2022-12-23T12:31:51.254Z,12.35
2022-12-23T12:32:51.305Z,12.29
2022-12-23T12:33:51.260Z,12.33
2022-12-23T12:34:51.303Z,12.3
2022-12-23T12:36:07.432Z,12.29
2022-12-23T12:36:51.429Z,12.35
2022-12-23T12:37:51.309Z,12.37
2022-12-23T12:38:51.270Z,12.33
2022-12-23T12:39:51.316Z,12.39
2022-12-23T12:40:54.415Z,12.39
2022-12-23T12:41:51.261Z,12.3
2022-12-23T12:42:51.263Z,12.36
2022-12-23T12:43:51.290Z,12.28
2022-12-23T12:44:51.293Z,12.4
2022-12-23T12:45:51.415Z,12.32
2022-12-23T12:46:51.297Z,12.25
2022-12-23T12:48:18.040Z,12.32
2022-12-23T12:48:51.334Z,12.23
2022-12-23T12:49:51.317Z,12.32
2022-12-23T12:50:51.293Z,12.4
2022-12-23T12:51:53.791Z,12.39
2022-12-23T12:52:51.292Z,12.35
2022-12-23T12:53:51.267Z,12.4
2022-12-23T12:54:51.325Z,12.39
2022-12-23T12:55:51.319Z,12.33
2022-12-23T12:56:51.302Z,12.32
2022-12-23T12:57:51.296Z,12.33
2022-12-23T12:58:51.321Z,12.26
2022-12-23T12:59:51.323Z,12.23
2022-12-23T13:00:51.321Z,12.3
2022-12-23T13:01:51.633Z,12.29
2022-12-23T13:02:55.630Z,12.35
2022-12-23T13:03:51.391Z,12.33
2022-12-23T13:04:51.340Z,12.36
2022-12-23T13:05:58.143Z,12.17
2022-12-23T13:06:51.315Z,12.28
2022-12-23T13:07:51.327Z,12.14